createdAt,value
2023-12-10T00:01:05.723Z,988.1
2023-12-10T00:02:22.640Z,988
2023-12-10T00:03:39.682Z,988
2023-12-10T00:04:56.609Z,987.9
2023-12-10T00:06:14.285Z,987.9
2023-12-10T00:07:30.606Z,987.8
2023-12-10T00:08:47.677Z,987.8
2023-12-10T00:10:04.647Z,987.7
2023-12-10T00:11:21.657Z,987.7
2023-12-10T00:12:38.838Z,987.7
2023-12-10T00:13:55.658Z,987.7
2023-12-10T00:15:12.664Z,987.7
2023-12-10T00:16:29.737Z,987.7
2023-12-10T00:17:46.698Z,987.6
2023-12-10T00:19:03.793Z,987.7
2023-12-10T00:20:20.630Z,987.7
2023-12-10T00:21:37.787Z,987.7
2023-12-10T00:22:54.685Z,987.7
2023-12-10T00:24:11.667Z,987.7
2023-12-10T00:25:28.698Z,987.6
2023-12-10T00:26:45.779Z,987.6
2023-12-10T00:28:02.709Z,987.7
2023-12-10T00:29:19.689Z,987.7
2023-12-10T00:30:36.740Z,987.7
2023-12-10T00:31:53.705Z,987.7
2023-12-10T00:33:10.773Z,987.7
2023-12-10T00:34:27.732Z,987.7
2023-12-10T00:35:44.650Z,987.7
2023-12-10T00:37:01.705Z,987.7
2023-12-10T00:38:21.618Z,987.7
2023-12-10T00:39:37.712Z,987.8
2023-12-10T00:40:54.691Z,987.8
2023-12-10T00:42:11.744Z,987.8
2023-12-10T00:43:30.091Z,987.8
2023-12-10T00:44:46.716Z,987.9
2023-12-10T00:46:03.703Z,987.9
2023-12-10T00:47:20.725Z,987.8
2023-12-10T00:48:37.981Z,987.8
2023-12-10T00:49:54.783Z,987.8
2023-12-10T00:51:11.881Z,987.8
2023-12-10T00:52:29.037Z,987.8
2023-12-10T00:53:45.723Z,987.8
2023-12-10T00:55:02.727Z,987.8
2023-12-10T00:56:19.813Z,987.8
2023-12-10T00:57:36.799Z,987.8
2023-12-10T00:58:53.833Z,987.8
2023-12-10T01:00:13.423Z,987.8
2023-12-10T01:01:27.803Z,987.8
2023-12-10T01:02:44.717Z,987.8
2023-12-10T01:04:01.824Z,987.8
2023-12-10T01:05:18.729Z,987.8
2023-12-10T01:06:35.743Z,987.8
2023-12-10T01:07:52.707Z,987.8
2023-12-10T01:09:09.716Z,987.8
2023-12-10T01:10:26.765Z,987.8
2023-12-10T01:11:43.833Z,987.8
2023-12-10T01:13:00.772Z,987.8
2023-12-10T01:14:17.794Z,987.9
2023-12-10T01:15:34.874Z,987.9
2023-12-10T01:16:51.912Z,987.9
2023-12-10T01:18:08.774Z,988
2023-12-10T01:19:26.320Z,988
2023-12-10T01:20:42.788Z,988
2023-12-10T01:22:02.998Z,988
2023-12-10T01:23:17.849Z,988
2023-12-10T01:24:34.727Z,988
2023-12-10T01:25:51.733Z,988
2023-12-10T01:27:08.778Z,988
2023-12-10T01:28:25.749Z,988
2023-12-10T01:29:42.881Z,988
2023-12-10T01:30:59.739Z,988
2023-12-10T01:32:16.781Z,988
2023-12-10T01:33:34.141Z,988
2023-12-10T01:34:50.924Z,987.9
2023-12-10T01:36:07.777Z,987.9
2023-12-10T01:37:24.780Z,987.9
2023-12-10T01:38:41.916Z,987.9
2023-12-10T01:39:58.760Z,988
2023-12-10T01:41:15.764Z,987.9
2023-12-10T01:42:32.836Z,987.9
2023-12-10T01:43:49.788Z,987.9
2023-12-10T01:45:06.785Z,987.8
2023-12-10T01:46:23.824Z,987.8
2023-12-10T01:47:40.799Z,987.8
2023-12-10T01:48:58.447Z,987.8
2023-12-10T01:50:14.802Z,987.8
2023-12-10T01:51:31.859Z,987.8
2023-12-10T01:52:48.756Z,987.8
2023-12-10T01:54:05.829Z,987.9
2023-12-10T01:55:22.782Z,987.9
2023-12-10T01:56:44.531Z,987.9
2023-12-10T01:57:56.783Z,988
2023-12-10T01:59:13.768Z,988
2023-12-10T02:00:30.866Z,988
2023-12-10T02:01:47.861Z,988
2023-12-10T02:03:04.764Z,988
2023-12-10T02:04:21.953Z,988
2023-12-10T02:05:39.525Z,988
2023-12-10T02:06:56.989Z,987.9
2023-12-10T02:08:13.773Z,987.8
2023-12-10T02:09:30.871Z,987.8
2023-12-10T02:10:47.831Z,987.8
2023-12-10T02:12:04.946Z,987.8
2023-12-10T02:13:21.781Z,987.8
2023-12-10T02:14:38.968Z,987.7
2023-12-10T02:15:55.943Z,987.7
2023-12-10T02:17:12.793Z,987.7
2023-12-10T02:18:29.936Z,987.7
2023-12-10T02:19:46.890Z,987.7
2023-12-10T02:21:04.451Z,987.6
2023-12-10T02:22:21.796Z,987.6
2023-12-10T02:23:38.794Z,987.6
2023-12-10T02:24:55.799Z,987.5
2023-12-10T02:26:12.920Z,987.5
2023-12-10T02:27:30.581Z,987.5
2023-12-10T02:28:47.833Z,987.5
2023-12-10T02:30:04.850Z,987.5
2023-12-10T02:31:21.958Z,987.5
2023-12-10T02:32:38.843Z,987.5
2023-12-10T02:33:55.985Z,987.5
2023-12-10T02:35:12.802Z,987.5
2023-12-10T02:36:30.349Z,987.5
2023-12-10T02:37:46.824Z,987.4
2023-12-10T02:39:03.857Z,987.4
2023-12-10T02:40:20.837Z,987.3
2023-12-10T02:41:37.897Z,987.3
2023-12-10T02:42:54.911Z,987.3
2023-12-10T02:44:11.900Z,987.4
2023-12-10T02:45:28.928Z,987.4
2023-12-10T02:46:46.008Z,987.4
2023-12-10T02:48:03.007Z,987.3
2023-12-10T02:49:19.934Z,987.3
2023-12-10T02:50:36.881Z,987.3
2023-12-10T02:51:53.865Z,987.2
2023-12-10T02:53:10.863Z,987.2
2023-12-10T02:54:27.912Z,987.2
2023-12-10T02:55:44.934Z,987.2
2023-12-10T02:57:01.865Z,987.2
2023-12-10T02:58:18.903Z,987.2
2023-12-10T02:59:37.095Z,987.2
2023-12-10T03:00:53.910Z,987.3
2023-12-10T03:02:10.924Z,987.3
2023-12-10T03:03:27.879Z,987.3
2023-12-10T03:04:44.918Z,987.2
2023-12-10T03:06:02.272Z,987.2
2023-12-10T03:07:20.605Z,987.2
2023-12-10T03:08:42.923Z,987.2
2023-12-10T03:09:59.920Z,987.3
2023-12-10T03:11:16.862Z,987.3
2023-12-10T03:12:34.607Z,987.3
2023-12-10T03:13:51.881Z,987.3
2023-12-10T03:15:08.869Z,987.3
2023-12-10T03:16:25.938Z,987.3
2023-12-10T03:17:43.032Z,987.3
2023-12-10T03:19:01.070Z,987.3
2023-12-10T03:20:18.248Z,987.2
2023-12-10T03:21:35.011Z,987.2
2023-12-10T03:22:51.938Z,987.3
2023-12-10T03:24:10.147Z,987.3
2023-12-10T03:25:27.387Z,987.3
2023-12-10T03:26:43.963Z,987.3
2023-12-10T03:28:01.148Z,987.3
2023-12-10T03:29:18.571Z,987.2
2023-12-10T03:30:35.952Z,987.2
2023-12-10T03:31:52.969Z,987.2
2023-12-10T03:33:10.167Z,987.2
2023-12-10T03:34:26.966Z,987.2
2023-12-10T03:35:43.927Z,987.3
2023-12-10T03:37:01.077Z,987.2
2023-12-10T03:38:17.960Z,987.3
2023-12-10T03:39:34.930Z,987.2
2023-12-10T03:40:51.911Z,987.3
2023-12-10T03:42:09.485Z,987.3
2023-12-10T03:43:27.004Z,987.3
2023-12-10T03:44:43.884Z,987.4
2023-12-10T03:46:01.254Z,987.4
2023-12-10T03:47:17.940Z,987.4
2023-12-10T03:48:35.263Z,987.4
2023-12-10T03:49:52.907Z,987.5
2023-12-10T03:51:09.926Z,987.5
2023-12-10T03:52:27.175Z,987.6
2023-12-10T03:53:43.968Z,987.6
2023-12-10T03:55:00.939Z,987.6
2023-12-10T03:56:18.912Z,987.6
2023-12-10T03:57:35.904Z,987.6
2023-12-10T03:58:53.760Z,987.6
2023-12-10T04:00:12.221Z,987.6
2023-12-10T04:01:29.049Z,987.6
2023-12-10T04:02:46.040Z,987.7
2023-12-10T04:04:03.095Z,987.7
2023-12-10T04:05:20.034Z,987.7
2023-12-10T04:06:37.083Z,987.7
2023-12-10T04:07:53.934Z,987.7
2023-12-10T04:09:11.636Z,987.7
2023-12-10T04:10:28.960Z,987.7
2023-12-10T04:11:46.109Z,987.8
2023-12-10T04:13:02.986Z,987.8
2023-12-10T04:14:20.040Z,987.8
2023-12-10T04:15:36.970Z,987.8
2023-12-10T04:16:53.978Z,987.9
2023-12-10T04:18:10.968Z,987.9
2023-12-10T04:19:29.337Z,987.9
2023-12-10T04:20:46.413Z,987.9
2023-12-10T04:22:03.534Z,987.9
2023-12-10T04:23:20.947Z,987.9
2023-12-10T04:24:38.010Z,987.9
2023-12-10T04:25:55.072Z,987.9
2023-12-10T04:27:12.150Z,987.9
2023-12-10T04:28:29.051Z,987.9
2023-12-10T04:29:46.013Z,987.9
2023-12-10T04:31:03.017Z,987.9
2023-12-10T04:32:19.945Z,987.9
2023-12-10T04:33:36.974Z,987.8
2023-12-10T04:34:54.248Z,987.9
2023-12-10T04:36:11.287Z,987.9
2023-12-10T04:37:28.971Z,987.9
2023-12-10T04:38:46.213Z,987.8
2023-12-10T04:40:03.062Z,987.8
2023-12-10T04:41:20.576Z,987.8
2023-12-10T04:42:38.055Z,987.8
2023-12-10T04:43:54.978Z,987.9
2023-12-10T04:45:11.973Z,987.9
2023-12-10T04:46:29.003Z,987.8
2023-12-10T04:47:46.091Z,987.8
2023-12-10T04:49:03.241Z,987.8
2023-12-10T04:50:19.979Z,987.8
2023-12-10T04:51:37.061Z,987.9
2023-12-10T04:52:54.001Z,987.9
2023-12-10T04:54:10.981Z,987.9
2023-12-10T04:55:28.001Z,988
2023-12-10T04:56:45.046Z,988
2023-12-10T04:58:02.076Z,987.9
2023-12-10T04:59:19.027Z,988
2023-12-10T05:00:36.073Z,988
2023-12-10T05:01:53.624Z,988
2023-12-10T05:03:11.073Z,988.1
2023-12-10T05:04:28.760Z,988.1
2023-12-10T05:05:46.065Z,988.2
2023-12-10T05:07:03.013Z,988.2
2023-12-10T05:08:20.000Z,988.2
2023-12-10T05:09:37.030Z,988.2
2023-12-10T05:10:54.046Z,988.2
2023-12-10T05:12:11.008Z,988.2
2023-12-10T05:13:28.021Z,988.2
2023-12-10T05:14:45.130Z,988.2
2023-12-10T05:16:02.085Z,988.1
2023-12-10T05:17:19.058Z,988.1
2023-12-10T05:18:36.153Z,988.2
2023-12-10T05:19:53.024Z,988.2
2023-12-10T05:21:10.105Z,988.2
2023-12-10T05:22:27.388Z,988.2
2023-12-10T05:23:44.682Z,988.3
2023-12-10T05:25:02.140Z,988.3
2023-12-10T05:26:19.103Z,988.3
2023-12-10T05:27:36.056Z,988.3
2023-12-10T05:28:53.020Z,988.2
2023-12-10T05:30:10.076Z,988.3
2023-12-10T05:31:27.182Z,988.2
2023-12-10T05:32:44.120Z,988.3
2023-12-10T05:34:01.185Z,988.3
2023-12-10T05:35:18.052Z,988.3
2023-12-10T05:36:35.110Z,988.3
2023-12-10T05:37:52.098Z,988.3
2023-12-10T05:39:09.045Z,988.3
2023-12-10T05:40:26.037Z,988.4
2023-12-10T05:41:43.050Z,988.4
2023-12-10T05:43:00.145Z,988.4
2023-12-10T05:44:17.112Z,988.3
2023-12-10T05:45:34.084Z,988.3
2023-12-10T05:46:51.064Z,988.4
2023-12-10T05:48:08.327Z,988.4
2023-12-10T05:49:25.231Z,988.4
2023-12-10T05:50:42.113Z,988.4
2023-12-10T05:51:59.159Z,988.4
2023-12-10T05:53:16.093Z,988.4
2023-12-10T05:54:33.106Z,988.4
2023-12-10T05:55:50.045Z,988.5
2023-12-10T05:57:07.049Z,988.4
2023-12-10T05:58:24.136Z,988.5
2023-12-10T05:59:41.765Z,988.5
2023-12-10T06:00:59.109Z,988.5
2023-12-10T06:02:16.627Z,988.6
2023-12-10T06:03:33.164Z,988.6
2023-12-10T06:04:50.133Z,988.6
2023-12-10T06:06:07.128Z,988.7
2023-12-10T06:07:24.161Z,988.6
2023-12-10T06:08:41.091Z,988.7
2023-12-10T06:09:58.175Z,988.7
2023-12-10T06:11:15.198Z,988.7
2023-12-10T06:12:32.727Z,988.7
2023-12-10T06:13:49.092Z,988.7
2023-12-10T06:15:06.089Z,988.7
2023-12-10T06:16:23.472Z,988.7
2023-12-10T06:17:40.171Z,988.7
2023-12-10T06:18:57.308Z,988.7
2023-12-10T06:20:14.113Z,988.8
2023-12-10T06:21:31.189Z,988.8
2023-12-10T06:22:48.277Z,988.8
2023-12-10T06:24:05.165Z,988.8
2023-12-10T06:25:22.244Z,988.8
2023-12-10T06:26:39.165Z,988.8
2023-12-10T06:27:57.166Z,988.9
2023-12-10T06:29:14.144Z,988.9
2023-12-10T06:30:31.225Z,988.9
2023-12-10T06:31:48.152Z,988.9
2023-12-10T06:33:05.188Z,989
2023-12-10T06:34:22.224Z,989
2023-12-10T06:35:39.103Z,989
2023-12-10T06:36:56.250Z,989
2023-12-10T06:38:13.206Z,989
2023-12-10T06:39:30.171Z,989.1
2023-12-10T06:40:47.213Z,989.1
2023-12-10T06:42:04.206Z,989.1
2023-12-10T06:43:21.196Z,989
2023-12-10T06:44:38.183Z,989.1
2023-12-10T06:45:55.208Z,989.1
2023-12-10T06:47:12.112Z,989.1
2023-12-10T06:48:29.310Z,989.1
2023-12-10T06:49:46.315Z,989.2
2023-12-10T06:51:03.155Z,989.3
2023-12-10T06:52:20.164Z,989.3
2023-12-10T06:53:37.196Z,989.3
2023-12-10T06:54:54.401Z,989.3
2023-12-10T06:56:11.179Z,989.3
2023-12-10T06:57:28.241Z,989.4
2023-12-10T06:58:45.190Z,989.4
2023-12-10T07:00:02.169Z,989.4
2023-12-10T07:01:19.285Z,989.4
2023-12-10T07:02:36.155Z,989.4
2023-12-10T07:03:53.224Z,989.5
2023-12-10T07:05:10.320Z,989.5
2023-12-10T07:06:27.233Z,989.5
2023-12-10T07:07:44.195Z,989.5
2023-12-10T07:09:01.256Z,989.5
2023-12-10T07:10:18.227Z,989.5
2023-12-10T07:11:35.205Z,989.4
2023-12-10T07:12:52.173Z,989.5
2023-12-10T07:14:09.151Z,989.5
2023-12-10T07:15:27.505Z,989.6
2023-12-10T07:16:44.237Z,989.6
2023-12-10T07:18:02.607Z,989.6
2023-12-10T07:19:19.212Z,989.6
2023-12-10T07:20:36.220Z,989.5
2023-12-10T07:21:53.230Z,989.5
2023-12-10T07:23:10.434Z,989.5
2023-12-10T07:24:27.257Z,989.5
2023-12-10T07:25:44.172Z,989.5
2023-12-10T07:27:01.394Z,989.5
2023-12-10T07:28:18.383Z,989.5
2023-12-10T07:29:35.260Z,989.5
2023-12-10T07:30:52.219Z,989.5
2023-12-10T07:32:09.226Z,989.6
2023-12-10T07:33:26.361Z,989.6
2023-12-10T07:34:43.244Z,989.6
2023-12-10T07:36:00.216Z,989.6
2023-12-10T07:37:17.202Z,989.6
2023-12-10T07:38:34.327Z,989.6
2023-12-10T07:39:51.777Z,989.6
2023-12-10T07:41:09.226Z,989.6
2023-12-10T07:42:26.395Z,989.6
2023-12-10T07:43:43.196Z,989.6
2023-12-10T07:45:00.318Z,989.6
2023-12-10T07:46:17.259Z,989.7
2023-12-10T07:47:34.327Z,989.7
2023-12-10T07:48:52.021Z,989.7
2023-12-10T07:50:09.408Z,989.7
2023-12-10T07:51:26.276Z,989.7
2023-12-10T07:52:45.530Z,989.7
2023-12-10T07:54:05.777Z,989.7
2023-12-10T07:55:23.600Z,989.8
2023-12-10T07:56:40.979Z,989.8
2023-12-10T07:58:00.336Z,989.7
2023-12-10T07:59:17.288Z,989.8
2023-12-10T08:00:34.706Z,989.8
2023-12-10T08:01:51.320Z,989.8
2023-12-10T08:03:08.282Z,989.8
2023-12-10T08:04:25.397Z,989.8
2023-12-10T08:05:42.317Z,989.8
2023-12-10T08:06:59.280Z,989.7
2023-12-10T08:08:16.240Z,989.8
2023-12-10T08:09:33.229Z,989.8
2023-12-10T08:10:52.518Z,989.8
2023-12-10T08:12:07.233Z,989.9
2023-12-10T08:13:24.403Z,989.9
2023-12-10T08:14:41.334Z,989.9
2023-12-10T08:15:58.509Z,989.9
2023-12-10T08:17:15.651Z,989.9
2023-12-10T08:18:33.598Z,989.9
2023-12-10T08:19:50.492Z,989.9
2023-12-10T08:21:07.466Z,989.9
2023-12-10T08:22:24.429Z,989.9
2023-12-10T08:23:41.792Z,989.9
2023-12-10T08:24:59.877Z,989.9
2023-12-10T08:26:16.390Z,990
2023-12-10T08:27:33.349Z,990
2023-12-10T08:28:50.334Z,990
2023-12-10T08:30:07.310Z,990
2023-12-10T08:31:24.301Z,990
2023-12-10T08:32:41.714Z,990
2023-12-10T08:33:58.584Z,990.1
2023-12-10T08:35:15.257Z,990.1
2023-12-10T08:36:32.394Z,990
2023-12-10T08:37:49.268Z,990.1
2023-12-10T08:39:06.362Z,990.1
2023-12-10T08:40:23.318Z,990.1
2023-12-10T08:41:40.468Z,990.1
2023-12-10T08:42:57.443Z,990.1
2023-12-10T08:44:14.728Z,990.2
2023-12-10T08:45:31.350Z,990.2
2023-12-10T08:46:48.933Z,990.2
2023-12-10T08:48:06.404Z,990.2
2023-12-10T08:49:23.431Z,990.2
2023-12-10T08:50:40.352Z,990.2
2023-12-10T08:51:57.489Z,990.2
2023-12-10T08:53:14.382Z,990.2
2023-12-10T08:54:31.459Z,990.2
2023-12-10T08:55:49.643Z,990.1
2023-12-10T08:57:06.358Z,990.1
2023-12-10T08:58:23.558Z,990.1
2023-12-10T08:59:40.359Z,990.2
2023-12-10T09:00:57.354Z,990.2
2023-12-10T09:02:14.340Z,990.3
2023-12-10T09:03:31.462Z,990.3
2023-12-10T09:04:48.372Z,990.3
2023-12-10T09:06:05.412Z,990.4
2023-12-10T09:07:22.309Z,990.3
2023-12-10T09:08:39.481Z,990.4
2023-12-10T09:09:59.402Z,990.3
2023-12-10T09:11:13.333Z,990.3
2023-12-10T09:12:30.612Z,990.3
2023-12-10T09:13:47.441Z,990.2
2023-12-10T09:15:04.846Z,990.2
2023-12-10T09:16:21.445Z,990.2
2023-12-10T09:17:38.382Z,990.2
2023-12-10T09:18:55.728Z,990.2
2023-12-10T09:20:12.573Z,990.2
2023-12-10T09:21:29.382Z,990.2
2023-12-10T09:22:46.355Z,990.2
2023-12-10T09:24:03.483Z,990.2
2023-12-10T09:25:20.342Z,990.2
2023-12-10T09:26:37.607Z,990.2
2023-12-10T09:27:54.806Z,990.2
2023-12-10T09:29:11.430Z,990.2
2023-12-10T09:30:28.646Z,990.1
2023-12-10T09:31:45.404Z,990.2
2023-12-10T09:33:02.467Z,990.2
2023-12-10T09:34:20.433Z,990.2
2023-12-10T09:35:36.359Z,990.3
2023-12-10T09:36:53.481Z,990.3
2023-12-10T09:38:10.379Z,990.3
2023-12-10T09:39:27.961Z,990.2
2023-12-10T09:40:45.455Z,990.3
2023-12-10T09:42:02.396Z,990.3
2023-12-10T09:43:19.433Z,990.3
2023-12-10T09:44:36.460Z,990.3
2023-12-10T09:45:53.419Z,990.3
2023-12-10T09:47:10.358Z,990.4
2023-12-10T09:48:27.692Z,990.4
2023-12-10T09:49:44.481Z,990.4
2023-12-10T09:51:01.409Z,990.4
2023-12-10T09:52:18.359Z,990.3
2023-12-10T09:53:35.436Z,990.3
2023-12-10T09:54:52.479Z,990.3
2023-12-10T09:56:09.389Z,990.3
2023-12-10T09:57:26.436Z,990.3
2023-12-10T09:58:43.453Z,990.3
2023-12-10T10:00:00.441Z,990.4
2023-12-10T10:01:18.473Z,990.4
2023-12-10T10:02:35.785Z,990.3
2023-12-10T10:03:52.471Z,990.4
2023-12-10T10:05:09.521Z,990.4
2023-12-10T10:06:26.452Z,990.4
2023-12-10T10:07:43.420Z,990.5
2023-12-10T10:09:00.398Z,990.5
2023-12-10T10:10:17.450Z,990.6
2023-12-10T10:11:34.398Z,990.5
2023-12-10T10:12:51.464Z,990.5
2023-12-10T10:14:08.435Z,990.6
2023-12-10T10:15:25.516Z,990.5
2023-12-10T10:16:42.691Z,990.5
2023-12-10T10:17:59.796Z,990.5
2023-12-10T10:19:16.579Z,990.5
2023-12-10T10:20:33.392Z,990.5
2023-12-10T10:21:50.496Z,990.6
2023-12-10T10:23:07.776Z,990.6
2023-12-10T10:24:24.424Z,990.6
2023-12-10T10:25:41.771Z,990.6
2023-12-10T10:26:58.775Z,990.6
2023-12-10T10:28:15.706Z,990.6
2023-12-10T10:29:32.434Z,990.6
2023-12-10T10:30:49.440Z,990.6
2023-12-10T10:32:06.454Z,990.6
2023-12-10T10:33:23.584Z,990.6
2023-12-10T10:34:40.553Z,990.6
2023-12-10T10:35:57.442Z,990.5
2023-12-10T10:37:14.471Z,990.5
2023-12-10T10:38:32.181Z,990.6
2023-12-10T10:39:49.592Z,990.6
2023-12-10T10:41:06.525Z,990.6
2023-12-10T10:42:23.587Z,990.6
2023-12-10T10:43:40.439Z,990.6
2023-12-10T10:44:57.476Z,990.6
2023-12-10T10:46:14.456Z,990.6
2023-12-10T10:47:32.562Z,990.6
2023-12-10T10:48:48.820Z,990.6
2023-12-10T10:50:18.365Z,990.6
2023-12-10T10:51:22.438Z,990.6
2023-12-10T10:52:40.202Z,990.6
2023-12-10T10:53:57.442Z,990.6
2023-12-10T10:55:14.444Z,990.6
2023-12-10T10:56:31.562Z,990.7
2023-12-10T10:57:48.599Z,990.7
2023-12-10T10:59:05.486Z,990.7
2023-12-10T11:00:22.526Z,990.7
2023-12-10T11:01:39.688Z,990.7
2023-12-10T11:02:56.518Z,990.7
2023-12-10T11:04:13.573Z,990.7
2023-12-10T11:05:30.678Z,990.7
2023-12-10T11:06:47.617Z,990.8
2023-12-10T11:08:04.606Z,990.8
2023-12-10T11:09:21.566Z,990.7
2023-12-10T11:10:38.506Z,990.8
2023-12-10T11:11:55.480Z,990.8
2023-12-10T11:13:12.464Z,990.8
2023-12-10T11:14:29.480Z,990.9
2023-12-10T11:15:46.621Z,990.9
2023-12-10T11:17:03.568Z,990.9
2023-12-10T11:18:20.565Z,990.9
2023-12-10T11:19:37.592Z,990.9
2023-12-10T11:20:54.505Z,990.9
2023-12-10T11:22:11.488Z,990.9
2023-12-10T11:23:29.572Z,990.9
2023-12-10T11:24:45.533Z,990.9
2023-12-10T11:26:02.514Z,990.9
2023-12-10T11:27:19.586Z,990.9
2023-12-10T11:28:36.912Z,990.9
2023-12-10T11:29:53.478Z,990.8
2023-12-10T11:31:10.700Z,990.9
2023-12-10T11:32:27.632Z,990.9
2023-12-10T11:33:44.667Z,990.9
2023-12-10T11:35:01.747Z,990.9
2023-12-10T11:36:34.442Z,990.9
2023-12-10T11:38:52.539Z,991
2023-12-10T11:40:09.614Z,991
2023-12-10T11:41:26.512Z,991
2023-12-10T11:42:43.601Z,991
2023-12-10T11:44:00.537Z,991.1
2023-12-10T11:45:17.528Z,991.1
2023-12-10T11:46:37.507Z,991
2023-12-10T11:47:52.059Z,991
2023-12-10T11:49:08.953Z,991
2023-12-10T11:50:25.542Z,991
2023-12-10T11:51:42.657Z,991
2023-12-10T11:52:59.595Z,990.9
2023-12-10T11:54:16.574Z,990.9
2023-12-10T11:55:33.548Z,991
2023-12-10T11:56:50.583Z,991
2023-12-10T11:58:07.597Z,991.1
2023-12-10T11:59:24.527Z,991.1
2023-12-10T12:00:41.684Z,991.1
2023-12-10T12:01:58.609Z,991.1
2023-12-10T12:03:15.539Z,991.1
2023-12-10T12:04:32.592Z,991.1
2023-12-10T12:05:49.576Z,991.1
2023-12-10T12:07:06.624Z,991.1
2023-12-10T12:08:23.556Z,991.1
2023-12-10T12:09:40.551Z,991.1
2023-12-10T12:10:57.588Z,991.1
2023-12-10T12:12:14.571Z,991.1
2023-12-10T12:13:31.765Z,991.1
2023-12-10T12:14:48.559Z,991.2
2023-12-10T12:16:05.658Z,991.2
2023-12-10T12:17:22.607Z,991.1
2023-12-10T12:18:39.629Z,991.1
2023-12-10T12:19:56.710Z,991.1
2023-12-10T12:21:13.598Z,991.1
2023-12-10T12:22:30.660Z,991.1
2023-12-10T12:23:47.560Z,991.2
2023-12-10T12:25:04.745Z,991.2
2023-12-10T12:26:21.598Z,991.1
2023-12-10T12:27:38.596Z,991.1
2023-12-10T12:28:55.640Z,991.2
2023-12-10T12:30:12.837Z,991.2
2023-12-10T12:31:29.614Z,991.2
2023-12-10T12:32:46.841Z,991.2
2023-12-10T12:34:04.534Z,991.2
2023-12-10T12:35:21.645Z,991.2
2023-12-10T12:36:38.577Z,991.2
2023-12-10T12:37:55.637Z,991.2
2023-12-10T12:39:12.592Z,991.2
2023-12-10T12:40:29.626Z,991.2
2023-12-10T12:41:46.624Z,991.2
2023-12-10T12:43:03.645Z,991.2
2023-12-10T12:44:20.597Z,991.2
2023-12-10T12:45:37.716Z,991.2
2023-12-10T12:46:54.624Z,991.2
2023-12-10T12:48:11.845Z,991.2
2023-12-10T12:49:28.746Z,991.2
2023-12-10T12:50:45.693Z,991.2
2023-12-10T12:52:02.635Z,991.3
2023-12-10T12:53:19.620Z,991.2
2023-12-10T12:54:36.652Z,991.2
2023-12-10T12:55:53.636Z,991.3
2023-12-10T12:57:10.662Z,991.3
2023-12-10T12:58:28.763Z,991.3
2023-12-10T12:59:46.641Z,991.3
2023-12-10T13:01:03.786Z,991.3
2023-12-10T13:02:20.728Z,991.3
2023-12-10T13:03:37.717Z,991.3
2023-12-10T13:04:54.835Z,991.3
2023-12-10T13:06:11.645Z,991.3
2023-12-10T13:07:28.833Z,991.3
2023-12-10T13:08:45.631Z,991.3
2023-12-10T13:10:03.749Z,991.3
2023-12-10T13:11:19.628Z,991.3
2023-12-10T13:12:36.722Z,991.3
2023-12-10T13:13:53.649Z,991.4
2023-12-10T13:15:10.763Z,991.4
2023-12-10T13:16:27.676Z,991.4
2023-12-10T13:17:44.975Z,991.4
2023-12-10T13:19:01.783Z,991.4
2023-12-10T13:20:18.704Z,991.4
2023-12-10T13:21:35.683Z,991.4
2023-12-10T13:22:52.658Z,991.4
2023-12-10T13:24:09.696Z,991.4
2023-12-10T13:25:26.680Z,991.4
2023-12-10T13:26:43.701Z,991.4
2023-12-10T13:28:00.717Z,991.5
2023-12-10T13:29:17.696Z,991.4
2023-12-10T13:30:34.713Z,991.5
2023-12-10T13:31:51.760Z,991.4
2023-12-10T13:33:08.750Z,991.5
2023-12-10T13:34:25.771Z,991.5
2023-12-10T13:35:42.716Z,991.5
2023-12-10T13:36:59.716Z,991.6
2023-12-10T13:38:16.705Z,991.6
2023-12-10T13:39:33.738Z,991.6
2023-12-10T13:40:50.705Z,991.6
2023-12-10T13:42:07.662Z,991.5
2023-12-10T13:43:24.718Z,991.5
2023-12-10T13:44:41.668Z,991.6
2023-12-10T13:45:58.804Z,991.6
2023-12-10T13:47:15.712Z,991.5
2023-12-10T13:48:33.004Z,991.6
2023-12-10T13:49:49.759Z,991.5
2023-12-10T13:51:06.912Z,991.5
2023-12-10T13:52:23.728Z,991.6
2023-12-10T13:53:40.673Z,991.6
2023-12-10T13:54:57.887Z,991.6
2023-12-10T13:56:14.707Z,991.6
2023-12-10T13:57:31.955Z,991.6
2023-12-10T13:58:48.682Z,991.6
2023-12-10T14:00:05.749Z,991.6
2023-12-10T14:01:22.746Z,991.6
2023-12-10T14:02:39.806Z,991.6
2023-12-10T14:03:56.924Z,991.6
2023-12-10T14:05:13.843Z,991.6
2023-12-10T14:06:30.811Z,991.6
2023-12-10T14:07:47.767Z,991.7
2023-12-10T14:09:04.791Z,991.6
2023-12-10T14:10:21.813Z,991.6
2023-12-10T14:11:43.324Z,991.7
2023-12-10T14:12:55.765Z,991.7
2023-12-10T14:14:14.763Z,991.7
2023-12-10T14:15:29.886Z,991.7
2023-12-10T14:16:46.856Z,991.7
2023-12-10T14:18:04.086Z,991.7
2023-12-10T14:19:20.848Z,991.7
2023-12-10T14:20:37.847Z,991.8
2023-12-10T14:21:54.876Z,991.7
2023-12-10T14:23:11.793Z,991.7
2023-12-10T14:24:28.799Z,991.7
2023-12-10T14:25:45.863Z,991.8
2023-12-10T14:27:02.781Z,991.7
2023-12-10T14:28:19.743Z,991.8
2023-12-10T14:29:36.741Z,991.7
2023-12-10T14:30:53.780Z,991.7
2023-12-10T14:32:10.792Z,991.8
2023-12-10T14:33:27.867Z,991.8
2023-12-10T14:34:44.873Z,991.8
2023-12-10T14:36:01.766Z,991.8
2023-12-10T14:37:18.773Z,991.9
2023-12-10T14:38:35.825Z,991.9
2023-12-10T14:39:52.851Z,991.9
2023-12-10T14:41:09.848Z,992
2023-12-10T14:42:26.796Z,991.9
2023-12-10T14:43:43.859Z,992
2023-12-10T14:45:00.758Z,992
2023-12-10T14:46:17.874Z,992
2023-12-10T14:47:34.957Z,992
2023-12-10T14:48:51.989Z,992
2023-12-10T14:50:08.854Z,992
2023-12-10T14:51:25.953Z,992
2023-12-10T14:52:42.794Z,992
2023-12-10T14:53:59.974Z,992
2023-12-10T14:55:19.226Z,992
2023-12-10T14:56:33.888Z,992
2023-12-10T14:57:50.814Z,992
2023-12-10T14:59:07.873Z,992
2023-12-10T15:00:25.499Z,992
2023-12-10T15:01:42.025Z,992
2023-12-10T15:02:58.868Z,992
2023-12-10T15:04:15.895Z,992
2023-12-10T15:05:32.801Z,992
2023-12-10T15:06:49.858Z,992
2023-12-10T15:08:06.786Z,992
2023-12-10T15:09:24.229Z,992
2023-12-10T15:10:42.182Z,992
2023-12-10T15:11:58.794Z,992
2023-12-10T15:13:15.844Z,992
2023-12-10T15:14:33.164Z,992
2023-12-10T15:15:49.976Z,992
2023-12-10T15:17:06.875Z,992
2023-12-10T15:18:23.941Z,992.1
2023-12-10T15:19:40.984Z,992
2023-12-10T15:20:57.826Z,992.1
2023-12-10T15:22:14.829Z,992.1
2023-12-10T15:23:31.935Z,992.1
2023-12-10T15:24:48.982Z,992.1
2023-12-10T15:26:05.955Z,992.1
2023-12-10T15:27:22.841Z,992.1
2023-12-10T15:28:39.874Z,992
2023-12-10T15:29:56.874Z,992
2023-12-10T15:31:14.009Z,992.1
2023-12-10T15:32:30.877Z,992.1
2023-12-10T15:33:47.970Z,992.1
2023-12-10T15:35:04.839Z,992.1
2023-12-10T15:36:21.907Z,992.1
2023-12-10T15:37:38.918Z,992.2
2023-12-10T15:38:55.864Z,992.2
2023-12-10T15:40:12.868Z,992.2
2023-12-10T15:41:29.942Z,992.2
2023-12-10T15:42:46.856Z,992.2
2023-12-10T15:44:03.915Z,992.2
2023-12-10T15:46:38.253Z,992.2
2023-12-10T15:47:54.978Z,992.2
2023-12-10T15:49:11.916Z,992.2
2023-12-10T15:50:28.900Z,992.2
2023-12-10T15:51:45.968Z,992.3
2023-12-10T15:53:02.952Z,992.3
2023-12-10T15:54:22.900Z,992.3
2023-12-10T15:55:39.878Z,992.3
2023-12-10T15:56:56.909Z,992.4
2023-12-10T15:58:13.976Z,992.3
2023-12-10T15:59:30.840Z,992.3
2023-12-10T16:00:48.032Z,992.3
2023-12-10T16:02:04.961Z,992.3
2023-12-10T16:03:21.971Z,992.3
2023-12-10T16:04:38.987Z,992.3
2023-12-10T16:05:56.117Z,992.2
2023-12-10T16:07:15.476Z,992.2
2023-12-10T16:08:30.168Z,992.2
2023-12-10T16:09:48.062Z,992.2
2023-12-10T16:11:04.901Z,992.2
2023-12-10T16:12:22.087Z,992.2
2023-12-10T16:13:38.872Z,992.2
2023-12-10T16:14:55.887Z,992.2
2023-12-10T16:16:13.049Z,992.2
2023-12-10T16:17:30.396Z,992.1
2023-12-10T16:18:47.367Z,992.2
2023-12-10T16:20:04.090Z,992.1
2023-12-10T16:21:21.032Z,992.2
2023-12-10T16:22:38.144Z,992.2
2023-12-10T16:23:54.907Z,992.2
2023-12-10T16:25:12.023Z,992.2
2023-12-10T16:26:28.935Z,992.2
2023-12-10T16:27:46.010Z,992.2
2023-12-10T16:29:02.922Z,992.2
2023-12-10T16:30:19.905Z,992.2
2023-12-10T16:31:36.923Z,992.2
2023-12-10T16:32:54.043Z,992.3
2023-12-10T16:34:11.010Z,992.2
2023-12-10T16:35:28.049Z,992.3
2023-12-10T16:36:45.038Z,992.3
2023-12-10T16:38:01.959Z,992.3
2023-12-10T16:39:19.029Z,992.3
2023-12-10T16:40:36.128Z,992.4
2023-12-10T16:41:52.988Z,992.4
2023-12-10T16:43:10.245Z,992.4